Latest Weather Observations for Kalumburu

IDD60801

Issued at 11:01 am CST Sunday 14 February 2016 (issued every 30 minutes, with the page automatically refreshed every 10 minutes)

About weather observations | Map of weather stations | Latest weather observations for NT | Other Formats
Station Details ID: 001019 Name: KALUMBURU Lat: -14.30 Lon: 126.65 Height: 23.0 m
Data from the previous 72 hours. | See also: Recent months at Kalumburu
Date/Time
CST
Temp
°C
App
Temp
°C
Dew
Point
Rel
Hum
%
Delta-T
°C
Wind Press
QNH
hPa
Press
MSL
hPa
Rain
since 9 am
mm
Dir
 
Spd
km/h
Gust
km/h
Spd
kts
Gust
kts
14/11:00am 32.6 37.9 24.9 64 5.4 S 6 11 3 6 1009.8 1009.6 0.0
14/10:30am 31.6 35.8 23.4 61 5.7 SSE 7 11 4 6 1010.0 1009.8 0.0
14/10:00am 30.9 35.0 23.3 64 5.2 S 7 9 4 5 1010.2 1010.0 0.0
14/09:30am 29.9 34.0 23.3 67 4.5 S 7 11 4 6 1010.2 1010.0 0.0
14/09:00am 29.0 33.5 23.7 73 3.7 S 6 9 3 5 1009.9 1009.7 0.0
14/08:30am 27.6 32.1 23.6 79 2.8 SW 6 9 3 5 1009.6 1009.4 0.0
14/08:00am 26.5 32.5 24.2 87 1.6 CALM 0 0 0 0 1009.4 1009.2 0.0
14/07:30am 24.9 29.4 23.0 89 1.3 SSE 4 6 2 3 1009.1 1008.9 0.0
14/07:00am 24.5 28.8 22.6 89 1.3 SSE 4 7 2 4 1008.8 1008.6 0.0
14/06:30am 24.8 29.9 22.7 88 1.4 CALM 0 0 0 0 1008.6 1008.4 0.0
14/06:00am 25.5 30.7 23.6 89 1.3 S 2 7 1 4 1008.4 1008.2 0.0
14/05:30am 24.8 29.3 22.9 89 1.3 S 4 7 2 4 1008.1 1007.9 0.0
14/05:00am 24.9 30.2 23.0 89 1.3 CALM 0 0 0 0 1007.8 1007.6 0.0
14/04:30am 25.1 30.5 23.2 89 1.3 CALM 0 0 0 0 1007.7 1007.5 0.0
14/04:00am 25.1 30.5 23.2 89 1.3 CALM 0 0 0 0 1007.8 1007.6 0.0
14/03:30am 25.0 30.2 22.9 88 1.4 CALM 0 0 0 0 1007.8 1007.6 0.0
14/03:00am 25.5 30.9 23.2 87 1.6 CALM 0 0 0 0 1008.0 1007.8 0.0
14/02:30am 25.8 31.4 23.5 87 1.6 CALM 0 0 0 0 1008.4 1008.2 0.0
14/02:00am 26.0 31.6 23.5 86 1.7 CALM 0 0 0 0 1008.8 1008.6 0.0
14/01:30am 26.3 31.9 23.6 85 1.9 CALM 0 0 0 0 1009.3 1009.1 0.0
14/01:00am 26.7 31.8 24.0 85 1.9 S 4 6 2 3 1009.6 1009.4 0.0
14/12:30am 26.8 32.8 24.3 86 1.7 CALM 0 0 0 0 1009.9 1009.7 0.0
14/12:00am 26.7 32.4 23.8 84 2.0 CALM 0 0 0 0 1010.1 1009.9 0.0
 
Date/Time
CST
Temp
°C
App
Temp
°C
Dew
Point
Rel
Hum
%
Delta-T
°C
Wind Press
QNH
hPa
Press
MSL
hPa
Rain
since 9 am
mm
Dir
 
Spd
km/h
Gust
km/h
Spd
kts
Gust
kts
13/11:30pm 27.0 32.9 24.1 84 2.0 CALM 0 0 0 0 1010.5 1010.3 0.0
13/11:00pm 27.1 33.1 24.2 84 2.0 CALM 0 0 0 0 1010.3 1010.1 0.0
13/10:30pm 27.1 33.1 24.2 84 2.0 CALM 0 0 0 0 1010.3 1010.1 0.0
13/10:00pm 27.1 33.2 24.4 85 1.9 CALM 0 0 0 0 1010.2 1010.0 0.0
13/09:30pm 26.8 32.6 23.9 84 2.0 CALM 0 0 0 0 1010.0 1009.8 0.0
13/09:00pm 26.7 32.0 23.0 80 2.5 CALM 0 0 0 0 1009.7 1009.5 0.0
13/08:30pm 26.8 31.1 22.6 78 2.8 E 4 6 2 3 1008.8 1008.6 0.0
13/08:00pm 27.0 31.4 21.3 71 3.8 CALM 0 6 0 3 1008.6 1008.4 0.0
13/07:30pm 28.0 31.3 21.5 67 4.4 S 6 11 3 6 1008.2 1008.0 0.0
13/07:00pm 28.6 32.7 21.6 66 4.7 WSW 2 7 1 4 1007.4 1007.2 0.0
13/06:30pm 28.5 29.2 19.7 59 5.8 NE 15 26 8 14 1007.2 1007.0 0.0
13/06:00pm 30.1 29.4 19.5 53 6.9 NE 22 41 12 22 1007.3 1007.1 0.0
13/05:30pm 33.6 36.3 24.2 58 6.6 N 17 22 9 12 1006.8 1006.6 0.0
13/05:00pm 34.0 36.4 23.7 55 7.2 N 17 22 9 12 1006.6 1006.4 0.0
13/04:30pm 34.7 38.1 24.0 53 7.5 NNW 13 19 7 10 1006.8 1006.6 0.0
13/04:00pm 35.4 38.6 22.4 47 9.0 N 9 13 5 7 1007.0 1006.8 0.0
13/03:30pm 36.2 39.2 20.8 40 10.4 SSE 6 9 3 5 1007.1 1006.9 0.0
13/03:00pm 35.4 39.2 22.7 47 8.8 S 7 11 4 6 1007.2 1007.0 0.0
13/02:30pm 35.5 39.7 23.1 48 8.6 S 6 7 3 4 1007.5 1007.3 0.0
13/02:00pm 35.0 39.9 24.6 55 7.4 SSE 7 11 4 6 1007.9 1007.7 0.0
13/01:30pm 33.9 38.0 23.3 54 7.4 SSE 7 11 4 6 1008.2 1008.0 0.0
13/01:00pm 33.8 38.2 24.4 58 6.6 SE 9 11 5 6 1008.7 1008.5 0.0
13/12:30pm 32.7 37.3 24.2 61 6.0 SSE 7 13 4 7 1009.3 1009.1 0.0
13/12:00pm 32.1 35.8 23.3 59 6.1 S 9 15 5 8 1009.7 1009.5 0.0
13/11:30am 31.5 34.9 23.3 61 5.7 SSE 11 15 6 8 1010.2 1010.0 0.0
13/11:00am 31.6 36.2 24.2 65 5.2 S 7 13 4 7 1010.4 1010.2 0.0
13/10:30am 30.8 35.3 24.0 67 4.7 SSE 7 11 4 6 1010.7 1010.5 10.0
13/10:00am 30.1 34.4 24.3 71 4.0 S 9 11 5 6 1010.9 1010.7 10.0
13/09:30am 29.1 33.1 23.1 70 4.1 S 7 11 4 6 1010.8 1010.6 9.8
13/09:00am 28.6 33.0 23.5 74 3.5 S 6 11 3 6 1010.7 1010.5 9.8
13/08:30am 27.4 31.3 23.0 77 3.0 S 7 9 4 5 1010.5 1010.3 9.8
13/08:00am 26.3 30.5 23.4 84 2.0 S 7 11 4 6 1010.3 1010.1 9.8
13/07:30am 24.8 29.3 23.0 90 1.2 SSE 4 6 2 3 1009.9 1009.7 9.8
13/07:00am 24.1 29.0 22.4 90 1.1 CALM 0 0 0 0 1009.6 1009.4 9.8
13/06:30am 24.2 29.1 22.3 89 1.3 CALM 0 7 0 4 1009.0 1008.8 9.8
13/06:00am 24.4 28.4 22.7 90 1.1 S 6 9 3 5 1008.8 1008.6 9.8
13/05:30am 24.0 28.9 22.3 90 1.1 CALM 0 0 0 0 1008.5 1008.3 9.8
13/05:00am 23.9 28.4 22.2 90 1.1 SE 2 6 1 3 1008.6 1008.4 9.8
13/04:30am 24.0 28.9 22.3 90 1.1 CALM 0 0 0 0 1008.3 1008.1 9.8
13/04:00am 24.0 28.9 22.3 90 1.1 CALM 0 0 0 0 1008.4 1008.2 9.8
13/03:30am 24.0 28.8 22.1 89 1.3 CALM 0 0 0 0 1008.4 1008.2 9.8
13/03:00am 24.2 28.6 22.1 88 1.4 NW 2 6 1 3 1008.7 1008.5 9.8
13/02:30am 24.4 28.9 22.3 88 1.4 SSW 2 7 1 4 1009.0 1008.8 9.8
13/02:00am 24.4 29.0 22.5 89 1.3 SSE 2 6 1 3 1009.1 1008.9 9.8
13/01:30am 24.6 28.6 22.7 89 1.3 SSE 6 7 3 4 1009.6 1009.4 9.8
13/01:00am 24.7 29.1 22.8 89 1.3 W 4 7 2 4 1009.7 1009.5 9.8
13/12:30am 24.8 30.0 22.9 89 1.3 CALM 0 0 0 0 1010.0 1009.8 9.8
13/12:00am 24.8 30.0 22.9 89 1.3 CALM 0 0 0 0 1010.2 1010.0 9.8
 
Date/Time
CST
Temp
°C
App
Temp
°C
Dew
Point
Rel
Hum
%
Delta-T
°C
Wind Press
QNH
hPa
Press
MSL
hPa
Rain
since 9 am
mm
Dir
 
Spd
km/h
Gust
km/h
Spd
kts
Gust
kts
12/11:30pm 24.8 29.9 22.7 88 1.4 CALM 0 6 0 3 1010.2 1010.0 9.8
12/11:00pm 25.0 30.1 22.7 87 1.6 CALM 0 0 0 0 1010.2 1010.0 9.8
12/10:30pm 25.1 30.0 22.4 85 1.8 CALM 0 0 0 0 1010.0 1009.8 9.8
12/10:00pm 26.3 30.0 22.6 80 2.5 WNW 7 9 4 5 1010.0 1009.8 9.8
12/09:30pm 25.8 30.1 22.7 83 2.1 SW 4 7 2 4 1010.0 1009.8 9.8
12/09:00pm 25.5 30.1 22.4 83 2.1 SSE 2 6 1 3 1009.1 1008.9 9.8
12/08:30pm 25.7 30.8 22.6 83 2.1 CALM 0 0 0 0 1008.4 1008.2 9.8
12/08:00pm 25.8 29.5 22.3 81 2.4 SSE 6 9 3 5 1008.1 1007.9 9.8
12/07:30pm 26.1 31.2 22.6 81 2.4 CALM 0 0 0 0 1007.9 1007.7 9.8
12/07:00pm 26.7 30.9 22.5 78 2.8 WNW 4 7 2 4 1007.8 1007.6 9.8
12/06:30pm 26.9 29.9 22.7 78 2.8 NW 11 17 6 9 1007.6 1007.4 9.8
12/06:00pm 26.8 32.1 24.3 86 1.7 E 4 9 2 5 1007.3 1007.1 9.8
12/05:30pm 26.1 30.9 24.1 89 1.4 W 6 11 3 6 1006.8 1006.6 9.8
12/05:00pm 24.4 26.2 22.5 89 1.3 S 17 26 9 14 1006.9 1006.7 9.8
12/04:31pm 25.4 24.3 21.7 80 2.5 SSE 30 52 16 28 1007.5 1007.3 3.4
12/04:30pm 25.7 25.0 21.8 79 2.6 SSE 28 52 15 28 1007.3 1007.1 2.4
12/04:10pm 28.5 28.0 19.2 57 6.0 E 20 43 11 23 1006.6 1006.4 0.0
12/04:00pm 33.5 36.2 23.5 55 7.0 NNW 15 20 8 11 1005.4 1005.2 0.0
12/03:30pm 33.6 35.5 22.7 53 7.5 NW 17 24 9 13 1005.3 1005.1 0.0
12/03:00pm 34.6 38.3 24.5 55 7.1 NW 13 20 7 11 1005.5 1005.3 0.0
12/02:30pm 34.6 38.3 23.9 53 7.5 NNW 11 19 6 10 1006.0 1005.8 0.0
12/02:00pm 34.4 39.3 24.6 56 6.9 NW 7 19 4 10 1006.5 1006.3 0.0
12/01:30pm 34.9 39.5 25.4 58 6.8 N 11 19 6 10 1007.1 1006.9 0.0
12/01:00pm 34.6 39.4 26.2 61 6.0 NNW 13 19 7 10 1007.5 1007.3 0.0
12/12:30pm 34.2 39.1 24.7 57 6.7 N 7 11 4 6 1007.8 1007.6 0.0
12/12:00pm 34.3 39.5 24.8 57 6.7 SSW 6 9 3 5 1008.1 1007.9 0.0
12/11:30am 33.4 38.8 25.1 61 5.9 E 6 9 3 5 1008.4 1008.2 0.0
12/11:00am 32.6 37.5 24.6 62 5.6 S 7 13 4 7 1008.7 1008.5 0.0
12/10:30am 32.0 36.7 24.3 63 5.4 S 7 13 4 7 1009.1 1008.9 4.4
12/10:00am 31.5 35.6 23.3 61 5.7 S 7 9 4 5 1009.2 1009.0 4.4
12/09:30am 30.7 35.9 22.8 62 5.4 CALM 0 0 0 0 1009.4 1009.2 4.4
12/09:00am 30.3 35.2 23.0 65 5.0 SSW 2 7 1 4 1009.2 1009.0 4.4
12/08:30am 28.7 33.8 23.4 73 3.6 NW 2 6 1 3 1009.1 1008.9 4.4
12/08:00am 26.9 32.5 23.6 82 2.3 CALM 0 0 0 0 1008.8 1008.6 4.4
12/07:30am 25.9 31.2 23.0 84 2.0 CALM 0 7 0 4 1008.7 1008.5 4.4
12/07:00am 25.6 30.7 22.7 84 2.0 CALM 0 0 0 0 1008.8 1008.6 4.4
12/06:30am 25.9 30.7 22.2 80 2.5 CALM 0 0 0 0 1008.9 1008.7 4.4
12/06:00am 26.6 30.1 21.8 75 3.2 ENE 6 7 3 4 1009.0 1008.8 4.4
12/05:30am 26.9 29.6 22.1 75 3.2 SSE 11 15 6 8 1008.8 1008.6 4.4
12/05:00am 25.7 29.4 22.6 83 2.1 SSE 7 9 4 5 1008.2 1008.0 4.4
12/04:30am 26.2 29.8 22.1 78 2.8 S 6 11 3 6 1007.9 1007.7 4.4
12/04:00am 25.9 29.7 22.4 81 2.4 S 6 9 3 5 1007.6 1007.4 4.4
12/03:30am 25.2 29.8 22.5 85 1.8 SW 2 7 1 4 1007.6 1007.4 4.4
12/03:00am 24.7 29.5 22.2 86 1.7 CALM 0 0 0 0 1007.3 1007.1 4.4
12/02:30am 24.2 28.9 21.9 87 1.5 CALM 0 0 0 0 1007.5 1007.3 4.4
12/02:00am 24.3 28.9 21.8 86 1.7 CALM 0 0 0 0 1007.6 1007.4 4.4
12/01:30am 24.5 29.3 22.2 87 1.5 CALM 0 0 0 0 1007.8 1007.6 4.4
12/01:00am 24.9 29.7 22.2 85 1.8 CALM 0 0 0 0 1008.1 1007.9 4.4
12/12:30am 24.7 29.2 21.6 83 2.1 CALM 0 0 0 0 1008.2 1008.0 4.4
12/12:00am 25.2 29.5 21.9 82 2.2 SSW 2 6 1 3 1008.5 1008.3 4.4
 
Date/Time
CST
Temp
°C
App
Temp
°C
Dew
Point
Rel
Hum
%
Delta-T
°C
Wind Press
QNH
hPa
Press
MSL
hPa
Rain
since 9 am
mm
Dir
 
Spd
km/h
Gust
km/h
Spd
kts
Gust
kts
11/11:30pm 25.2 29.4 21.7 81 2.3 SE 2 7 1 4 1008.6 1008.4 4.4
11/11:00pm 25.5 29.6 20.7 75 3.1 CALM 0 6 0 3 1008.5 1008.3 4.4
11/10:30pm 26.8 29.9 20.2 67 4.3 WSW 4 11 2 6 1008.3 1008.1 4.4
11/10:00pm 26.7 31.2 21.5 73 3.5 CALM 0 0 0 0 1008.1 1007.9 4.4
11/09:30pm 27.5 28.7 19.8 63 5.0 WNW 13 19 7 10 1007.5 1007.3 4.4
11/09:00pm 26.7 29.5 20.5 69 4.1 NW 6 9 3 5 1008.6 1008.4 4.4
11/08:30pm 26.9 28.4 19.8 65 4.6 ESE 11 24 6 13 1008.4 1008.2 4.4
11/08:00pm 26.1 28.7 20.0 69 4.0 SSE 6 13 3 7 1007.4 1007.2 4.4
11/07:30pm 25.8 30.0 21.0 75 3.2 CALM 0 6 0 3 1006.5 1006.3 4.4
11/07:00pm 26.8 28.5 19.4 64 4.8 WNW 9 15 5 8 1005.8 1005.6 4.4
11/06:30pm 26.9 29.2 20.7 69 4.1 NW 9 13 5 7 1005.7 1005.5 4.4
11/06:00pm 26.5 27.8 20.8 71 3.8 N 15 20 8 11 1005.5 1005.3 4.4
11/05:30pm 26.3 28.1 21.1 73 3.4 N 13 20 7 11 1005.4 1005.2 4.4
11/05:00pm 26.7 29.2 21.7 74 3.3 N 11 19 6 10 1005.4 1005.2 4.4
11/04:30pm 26.3 28.4 21.7 76 3.1 NW 13 28 7 15 1004.9 1004.7 4.2
11/04:00pm 24.7 25.8 20.4 77 2.8 ESE 15 35 8 19 1004.3 1004.1 4.2
11/03:45pm 26.8 24.0 17.3 56 6.0 E 28 65 15 35 1004.7 1004.5 0.6
11/03:42pm 29.6 27.1 17.1 47 7.9 ENE 26 43 14 23 1004.9 1004.7 0.0
11/03:30pm 34.6 38.3 25.1 57 6.8 NNE 15 26 8 14 1004.6 1004.4 0.0
11/03:00pm 36.2 39.5 25.1 53 7.9 NNW 17 24 9 13 1004.0 1003.8 0.0
11/02:30pm 37.4 41.6 23.4 44 9.8 S 7 11 4 6 1004.5 1004.3 0.0
11/02:00pm 36.8 39.9 21.4 41 10.5 SE 7 9 4 5 1004.9 1004.7 0.0
11/01:30pm 36.4 39.9 22.2 44 9.8 S 7 11 4 6 1005.2 1005.0 0.0
11/01:00pm 35.6 39.1 22.2 46 9.2 S 7 11 4 6 1005.8 1005.6 0.0

Other Formats:

Comma delimited format used in spreadsheet applications
http://www.bom.gov.au/fwo/IDD60801/IDD60801.94100.axf

JavaScript Object Notation format (JSON) in row-major order
http://www.bom.gov.au/fwo/IDD60801/IDD60801.94100.json